Elizabeth City, NC

8:19 PM EDT on September 02, 2014 (GMT -0400)
KNCELIZA3 | Change Station
CLOSE
Current Station
Personal Weather Station
Location: Elizabeth City, NC
Elevation: 12 ft
Nearby Weather Stations

Elev 12 ft 36.24 °N, 76.22 °W | Updated 2 seconds ago

Clear
Clear
90.6 °F
Feels Like 110 °F
N
7.8
Wind Variable Wind from SSW
Gusts 9.0 mph

Today
High -- | Low -- °F
--% Chance of Precip.
Yesterday
High -- | Low -- °F
Precip. -- in
6:37 AM 7:31 PM
First Quarter, 56% visible
Pressure 29.95 in
Visibility 10.0 miles
Clouds Clear
Heat Index 110 °F
Dew Point 81 °F
Humidity 73%
Rainfall 0.00 in
Snow Depth Not available.
UV 0 out of 12
Pollen 9.30 out of 12
Air Quality Not available.
Flu Activity Not available.
METAR KECG 022354Z 19009KT 10SM CLR 29/25 A2995 RMK AO2 SLP141 T02940250 10339 20294 53002

More Conditions Fewer Conditions

Pressure 29.95 in
Visibility 10.0 miles
Clouds Clear
Heat Index 110 °F
Dew Point 81 °F
Humidity 73%
Rainfall 0.00 in
Snow Depth Not available.
UV 0 out of 12
Pollen 9.30 out of 12
Air Quality Not available.
Flu Activity Not available.
METAR KECG 022354Z 19009KT 10SM CLR 29/25 A2995 RMK AO2 SLP141 T02940250 10339 20294 53002

More Conditions Fewer Conditions

10-Day Weather Forecast

Almanac

Astronomy

Sep. 02, 2014 Rise Set
Actual Time 6:37 AM EDT 7:31 PM EDT
Civil Twilight 6:10 AM EDT 7:57 PM EDT
Nautical Twilight 5:39 AM EDT 8:28 PM EDT
Astronomical Twilight 5:07 AM EDT 9:00 PM EDT
Moon 2:06 PM EDT (9/2) No Moon Set
Length of Visible Light 13h 46m
Length of Day
12h 54m
Tomorrow will be 2m 13s shorter.
First Quarter, 56% of the Moon is Illuminated
Today
First Quarter
Sep 8
Full
Sep 15
Last Quarter
Sep 24
New
Oct 1
First Quarter

Today's Extremes

State Highs State Lows

Community

WunderPhotos

Upload Photos

1,749,807 photos uploaded!

Nearby

Snow Depth

Station Depth Elevation
No new snow has been reported.

Earthquake Activity

City Distance Mag. Time & Date
No recent earthquake activity has been reported nearby.
Minimum magnitude displayed is 2.5.

Coastal Water Temperatures

Place Temperature
Oregon Inlet Marina, NC 84.9 °F
Duck Pier, NC 75.0 °F
Hatteras, NC 84.0 °F
Money Point, VA 88.0 °F
Sewells Point, VA 81.0 °F
Chesapeake Bay Bridge Tunnel, VA 78.1 °F

Nearby Weather Stations